createdAt,value
2023-02-03T00:00:23.746Z,0.00
2023-02-03T00:01:23.311Z,0.00
2023-02-03T00:02:23.245Z,0.00
2023-02-03T00:03:23.203Z,0.00
2023-02-03T00:04:23.110Z,0.00
2023-02-03T00:05:23.036Z,0.00
2023-02-03T00:06:22.967Z,0.00
2023-02-03T00:07:22.906Z,0.00
2023-02-03T00:08:22.828Z,0.00
2023-02-03T00:09:22.751Z,0.00
2023-02-03T00:10:22.686Z,0.00
2023-02-03T00:11:22.647Z,0.00
2023-02-03T00:12:22.552Z,0.00
2023-02-03T00:13:22.473Z,0.00
2023-02-03T00:14:22.434Z,0.00
2023-02-03T00:15:22.381Z,0.00
2023-02-03T00:16:22.332Z,0.00
2023-02-03T00:17:22.195Z,0.00
2023-02-03T00:18:22.127Z,0.00
2023-02-03T00:19:22.065Z,0.00
2023-02-03T00:20:22.011Z,0.00
2023-02-03T00:21:21.918Z,0.00
2023-02-03T00:22:21.855Z,0.00
2023-02-03T00:23:21.777Z,0.00
2023-02-03T00:24:21.717Z,0.00
2023-02-03T00:25:21.666Z,0.00
2023-02-03T00:26:21.573Z,0.00
2023-02-03T00:27:21.515Z,0.00
2023-02-03T00:28:21.447Z,0.00
2023-02-03T00:29:21.384Z,0.00
2023-02-03T00:30:21.288Z,0.00
2023-02-03T00:31:21.333Z,0.00
2023-02-03T00:32:21.363Z,0.00
2023-02-03T00:33:21.779Z,0.00
2023-02-03T00:34:21.013Z,0.00
2023-02-03T00:35:20.945Z,0.00
2023-02-03T00:36:20.882Z,0.00
2023-02-03T00:37:20.801Z,0.00
2023-02-03T00:38:20.735Z,0.00
2023-02-03T00:39:20.667Z,0.00
2023-02-03T00:40:20.609Z,0.00
2023-02-03T00:41:20.524Z,0.00
2023-02-03T00:42:20.462Z,0.00
2023-02-03T00:43:20.384Z,0.00
2023-02-03T00:44:20.310Z,0.00
2023-02-03T00:45:20.248Z,0.00
2023-02-03T00:46:20.209Z,0.00
2023-02-03T00:47:20.118Z,0.00
2023-02-03T00:48:20.037Z,0.00
2023-02-03T00:49:19.962Z,0.00
2023-02-03T00:50:19.908Z,0.00
2023-02-03T00:51:19.841Z,0.00
2023-02-03T00:52:19.751Z,0.00
2023-02-03T00:53:19.678Z,0.00
2023-02-03T00:54:19.613Z,0.00
2023-02-03T00:55:19.551Z,0.00
2023-02-03T00:56:19.466Z,0.00
2023-02-03T00:57:19.403Z,0.00
2023-02-03T00:58:19.407Z,0.00
2023-02-03T00:59:19.268Z,0.00
2023-02-03T01:00:19.187Z,0.00
2023-02-03T01:01:19.174Z,0.00
2023-02-03T01:02:19.141Z,0.00
2023-02-03T01:03:18.988Z,0.00
2023-02-03T01:04:18.906Z,0.00
2023-02-03T01:05:18.836Z,0.00
2023-02-03T01:06:18.781Z,0.00
2023-02-03T01:07:18.717Z,0.00
2023-02-03T01:08:18.624Z,0.00
2023-02-03T01:09:18.554Z,0.00
2023-02-03T01:10:18.488Z,0.00
2023-02-03T01:11:18.422Z,0.00
2023-02-03T01:12:18.366Z,0.00
2023-02-03T01:13:18.276Z,0.00
2023-02-03T01:14:18.292Z,0.00
2023-02-03T01:15:18.142Z,0.00
2023-02-03T01:16:18.098Z,0.00
2023-02-03T01:17:17.997Z,0.00
2023-02-03T01:18:17.950Z,0.00
2023-02-03T01:19:17.863Z,0.00
2023-02-03T01:20:17.794Z,0.00
2023-02-03T01:21:17.721Z,0.00
2023-02-03T01:22:17.644Z,0.00
2023-02-03T01:23:17.582Z,0.00
2023-02-03T01:24:17.502Z,0.00
2023-02-03T01:25:17.457Z,0.00
2023-02-03T01:26:17.367Z,0.00
2023-02-03T01:27:17.295Z,0.00
2023-02-03T01:28:17.268Z,0.00
2023-02-03T01:29:17.159Z,0.00
2023-02-03T01:30:17.093Z,0.00
2023-02-03T01:31:17.153Z,0.00
2023-02-03T01:32:16.944Z,0.00
2023-02-03T01:33:16.871Z,0.00
2023-02-03T01:34:16.798Z,0.00
2023-02-03T01:35:16.729Z,0.00
2023-02-03T01:36:16.687Z,0.00
2023-02-03T01:37:16.587Z,0.00
2023-02-03T01:38:16.521Z,0.00
2023-02-03T01:39:16.453Z,0.00
2023-02-03T01:40:16.374Z,0.00
2023-02-03T01:41:16.313Z,0.00
2023-02-03T01:42:16.239Z,0.00
2023-02-03T01:43:16.170Z,0.00
2023-02-03T01:44:16.096Z,0.00
2023-02-03T01:45:16.021Z,0.00
2023-02-03T01:46:16.031Z,0.00
2023-02-03T01:47:15.909Z,0.00
2023-02-03T01:48:15.815Z,0.00
2023-02-03T01:49:15.744Z,0.00
2023-02-03T01:50:15.691Z,0.00
2023-02-03T01:51:15.608Z,0.00
2023-02-03T01:52:15.531Z,0.00
2023-02-03T01:53:15.468Z,0.00
2023-02-03T01:54:15.391Z,0.00
2023-02-03T01:55:15.358Z,0.00
2023-02-03T01:56:15.248Z,0.00
2023-02-03T01:57:15.182Z,0.00
2023-02-03T01:58:15.115Z,0.00
2023-02-03T01:59:15.039Z,0.00
2023-02-03T02:00:14.977Z,0.00
2023-02-03T02:01:14.930Z,0.00
2023-02-03T02:02:14.957Z,0.00
2023-02-03T02:03:14.753Z,0.00
2023-02-03T02:04:14.684Z,0.00
2023-02-03T02:05:14.619Z,0.00
2023-02-03T02:06:14.546Z,0.00
2023-02-03T02:07:14.499Z,0.00
2023-02-03T02:08:14.404Z,0.00
2023-02-03T02:09:14.348Z,0.00
2023-02-03T02:10:14.260Z,0.00
2023-02-03T02:11:14.201Z,0.00
2023-02-03T02:12:14.126Z,0.00
2023-02-03T02:13:14.054Z,0.00
2023-02-03T02:14:13.980Z,0.00
2023-02-03T02:15:13.925Z,0.00
2023-02-03T02:16:13.891Z,0.00
2023-02-03T02:17:13.771Z,0.00
2023-02-03T02:18:13.699Z,0.00
2023-02-03T02:19:13.676Z,0.00
2023-02-03T02:20:13.574Z,0.00
2023-02-03T02:21:13.515Z,0.00
2023-02-03T02:22:13.411Z,0.00
2023-02-03T02:23:13.347Z,0.00
2023-02-03T02:24:13.322Z,0.00
2023-02-03T02:25:13.201Z,0.00
2023-02-03T02:26:13.131Z,0.00
2023-02-03T02:27:13.066Z,0.00
2023-02-03T02:28:13.053Z,0.00
2023-02-03T02:29:12.920Z,0.00
2023-02-03T02:30:12.865Z,0.00
2023-02-03T02:31:12.909Z,0.00
2023-02-03T02:32:12.704Z,0.00
2023-02-03T02:33:12.645Z,0.00
2023-02-03T02:34:12.588Z,0.00
2023-02-03T02:35:12.495Z,0.00
2023-02-03T02:36:12.423Z,0.00
2023-02-03T02:37:12.360Z,0.00
2023-02-03T02:38:12.289Z,0.00
2023-02-03T02:39:12.225Z,0.00
2023-02-03T02:40:12.806Z,0.00
2023-02-03T02:41:12.082Z,0.00
2023-02-03T02:42:12.017Z,0.00
2023-02-03T02:43:11.934Z,0.00
2023-02-03T02:44:11.857Z,0.00
2023-02-03T02:45:11.813Z,0.00
2023-02-03T02:46:11.788Z,0.00
2023-02-03T02:47:11.650Z,0.00
2023-02-03T02:48:11.579Z,0.00
2023-02-03T02:49:11.526Z,0.00
2023-02-03T02:50:11.436Z,0.00
2023-02-03T02:51:11.448Z,0.00
2023-02-03T02:52:11.326Z,0.00
2023-02-03T02:53:11.223Z,0.00
2023-02-03T02:54:11.173Z,0.00
2023-02-03T02:55:11.088Z,0.00
2023-02-03T02:56:11.730Z,0.00
2023-02-03T02:57:10.944Z,0.00
2023-02-03T02:58:10.873Z,0.00
2023-02-03T02:59:10.805Z,0.00
2023-02-03T03:00:10.759Z,0.00
2023-02-03T03:01:10.683Z,0.00
2023-02-03T03:02:10.597Z,0.00
2023-02-03T03:03:10.532Z,0.00
2023-02-03T03:04:10.443Z,0.00
2023-02-03T03:05:10.451Z,0.00
2023-02-03T03:06:10.316Z,0.00
2023-02-03T03:07:10.274Z,0.00
2023-02-03T03:08:10.178Z,0.00
2023-02-03T03:09:10.100Z,0.00
2023-02-03T03:10:10.044Z,0.00
2023-02-03T03:11:09.956Z,0.00
2023-02-03T03:12:09.883Z,0.00
2023-02-03T03:13:09.817Z,0.00
2023-02-03T03:14:09.755Z,0.00
2023-02-03T03:15:09.667Z,0.00
2023-02-03T03:16:09.669Z,0.00
2023-02-03T03:17:09.534Z,0.00
2023-02-03T03:18:09.484Z,0.00
2023-02-03T03:19:09.392Z,0.00
2023-02-03T03:20:09.432Z,0.00
2023-02-03T03:21:09.248Z,0.00
2023-02-03T03:22:09.173Z,0.00
2023-02-03T03:23:09.101Z,0.00
2023-02-03T03:24:09.050Z,0.00
2023-02-03T03:25:08.972Z,0.00
2023-02-03T03:26:08.895Z,0.00
2023-02-03T03:27:08.831Z,0.00
2023-02-03T03:28:08.850Z,0.00
2023-02-03T03:29:08.691Z,0.00
2023-02-03T03:30:08.619Z,0.00
2023-02-03T03:31:08.642Z,0.00
2023-02-03T03:32:08.477Z,0.00
2023-02-03T03:33:08.396Z,0.00
2023-02-03T03:34:08.357Z,0.00
2023-02-03T03:35:08.269Z,0.00
2023-02-03T03:36:08.184Z,0.00
2023-02-03T03:37:08.119Z,0.00
2023-02-03T03:38:08.061Z,0.00
2023-02-03T03:39:07.983Z,0.00
2023-02-03T03:40:07.915Z,0.00
2023-02-03T03:41:07.835Z,0.00
2023-02-03T03:42:07.817Z,0.00
2023-02-03T03:43:07.690Z,0.00
2023-02-03T03:44:07.650Z,0.00
2023-02-03T03:45:07.555Z,0.00
2023-02-03T03:46:07.531Z,0.00
2023-02-03T03:47:07.404Z,0.00
2023-02-03T03:48:07.339Z,0.00
2023-02-03T03:49:07.291Z,0.00
2023-02-03T03:50:07.199Z,0.00
2023-02-03T03:51:07.134Z,0.00
2023-02-03T03:52:07.057Z,0.00
2023-02-03T03:53:06.983Z,0.00
2023-02-03T03:54:06.930Z,0.00
2023-02-03T03:55:06.843Z,0.00
2023-02-03T03:56:06.776Z,0.00
2023-02-03T03:57:06.704Z,0.00
2023-02-03T03:58:06.652Z,0.00
2023-02-03T03:59:06.580Z,0.00
2023-02-03T04:00:06.494Z,0.00
2023-02-03T04:01:06.482Z,0.00
2023-02-03T04:02:06.479Z,0.00
2023-02-03T04:03:06.306Z,0.00
2023-02-03T04:04:06.224Z,0.00
2023-02-03T04:05:06.160Z,0.00
2023-02-03T04:06:06.069Z,0.00
2023-02-03T04:07:06.007Z,0.00
2023-02-03T04:08:05.952Z,0.00
2023-02-03T04:09:05.857Z,0.00
2023-02-03T04:10:05.791Z,0.00
2023-02-03T04:11:05.716Z,0.00
2023-02-03T04:12:05.677Z,0.00
2023-02-03T04:13:05.571Z,0.00
2023-02-03T04:14:05.537Z,0.00
2023-02-03T04:15:05.438Z,0.00
2023-02-03T04:16:05.402Z,0.00
2023-02-03T04:17:05.298Z,0.00
2023-02-03T04:18:05.248Z,0.00
2023-02-03T04:19:06.969Z,0.00
2023-02-03T04:20:05.114Z,0.00
2023-02-03T04:21:05.014Z,0.00
2023-02-03T04:22:04.939Z,0.00
2023-02-03T04:23:04.871Z,0.00
2023-02-03T04:24:04.824Z,0.00
2023-02-03T04:25:04.729Z,0.00
2023-02-03T04:26:04.666Z,0.00
2023-02-03T04:27:05.419Z,0.00
2023-02-03T04:28:04.517Z,0.00
2023-02-03T04:29:04.455Z,0.00
2023-02-03T04:30:04.379Z,0.00
2023-02-03T04:31:04.382Z,0.00
2023-02-03T04:32:04.239Z,0.00
2023-02-03T04:33:04.177Z,0.00
2023-02-03T04:34:04.100Z,0.00
2023-02-03T04:35:04.041Z,0.00
2023-02-03T04:36:03.958Z,0.00
2023-02-03T04:37:03.900Z,0.00
2023-02-03T04:38:03.821Z,0.00
2023-02-03T04:39:03.746Z,0.00
2023-02-03T04:40:03.704Z,0.00
2023-02-03T04:41:03.605Z,0.00
2023-02-03T04:42:03.562Z,0.00
2023-02-03T04:43:03.486Z,0.00
2023-02-03T04:44:03.407Z,0.00
2023-02-03T04:45:03.328Z,0.00
2023-02-03T04:46:03.357Z,0.00
2023-02-03T04:47:03.246Z,0.00
2023-02-03T04:48:03.114Z,0.00
2023-02-03T04:49:03.050Z,0.00
2023-02-03T04:50:02.993Z,0.00
2023-02-03T04:51:02.905Z,0.00
2023-02-03T04:52:02.835Z,0.00
2023-02-03T04:53:02.799Z,0.00
2023-02-03T04:54:02.706Z,0.00
2023-02-03T04:55:02.627Z,0.00
2023-02-03T04:56:02.556Z,0.00
2023-02-03T04:57:02.490Z,0.00
2023-02-03T04:58:02.435Z,0.00
2023-02-03T04:59:02.347Z,0.00
2023-02-03T05:00:02.283Z,0.00
2023-02-03T05:01:02.303Z,0.00
2023-02-03T05:02:02.161Z,0.00
2023-02-03T05:03:02.111Z,0.00
2023-02-03T05:04:01.999Z,0.00
2023-02-03T05:05:01.937Z,0.00
2023-02-03T05:06:01.866Z,0.00
2023-02-03T05:07:01.792Z,0.00
2023-02-03T05:08:01.727Z,0.00
2023-02-03T05:09:01.657Z,0.00
2023-02-03T05:10:01.618Z,0.00
2023-02-03T05:11:02.364Z,0.00
2023-02-03T05:12:01.444Z,0.00
2023-02-03T05:13:01.381Z,0.00
2023-02-03T05:14:01.324Z,0.00
2023-02-03T05:15:01.233Z,0.00
2023-02-03T05:16:01.170Z,0.00
2023-02-03T05:17:01.100Z,0.00
2023-02-03T05:18:01.031Z,0.00
2023-02-03T05:19:00.961Z,0.00
2023-02-03T05:20:00.887Z,0.00
2023-02-03T05:21:00.821Z,0.00
2023-02-03T05:22:00.756Z,0.00
2023-02-03T05:23:00.679Z,0.00
2023-02-03T05:24:00.625Z,0.00
2023-02-03T05:25:00.547Z,0.00
2023-02-03T05:26:00.511Z,0.00
2023-02-03T05:27:00.411Z,0.00
2023-02-03T05:28:00.379Z,0.00
2023-02-03T05:30:00.254Z,0.00
2023-02-03T05:31:00.238Z,0.00
2023-02-03T05:32:00.183Z,0.00
2023-02-03T05:33:00.042Z,0.00
2023-02-03T05:33:59.970Z,0.00
2023-02-03T05:34:59.929Z,0.00
2023-02-03T05:36:20.836Z,0.00
2023-02-03T05:36:59.763Z,0.00
2023-02-03T05:37:59.714Z,0.00
2023-02-03T05:38:59.655Z,0.00
2023-02-03T05:39:59.563Z,0.00
2023-02-03T05:40:59.549Z,0.00
2023-02-03T05:42:20.421Z,0.00
2023-02-03T05:42:59.427Z,0.00
2023-02-03T05:43:59.331Z,0.00
2023-02-03T05:44:59.276Z,0.00
2023-02-03T05:45:59.200Z,0.00
2023-02-03T05:46:59.110Z,0.00
2023-02-03T05:48:20.000Z,0.00
2023-02-03T05:48:58.955Z,0.00
2023-02-03T05:49:58.872Z,0.00
2023-02-03T05:50:58.855Z,0.00
2023-02-03T05:51:58.728Z,0.00
2023-02-03T05:52:58.688Z,0.00
2023-02-03T05:54:19.596Z,0.00
2023-02-03T05:54:59.906Z,0.00
2023-02-03T05:55:58.471Z,0.00
2023-02-03T05:56:58.408Z,0.00
2023-02-03T05:57:58.323Z,0.00
2023-02-03T05:58:58.262Z,0.00
2023-02-03T06:00:19.265Z,0.00
2023-02-03T06:00:58.115Z,0.00
2023-02-03T06:01:58.072Z,0.00
2023-02-03T06:02:57.985Z,0.00
2023-02-03T06:03:58.020Z,0.00
2023-02-03T06:04:57.853Z,0.00
2023-02-03T06:06:18.771Z,0.00
2023-02-03T06:06:57.714Z,0.00
2023-02-03T06:07:57.642Z,0.00
2023-02-03T06:08:57.559Z,0.00
2023-02-03T06:09:57.495Z,0.00
2023-02-03T06:10:57.428Z,0.00
2023-02-03T06:12:18.349Z,0.00
2023-02-03T06:12:57.313Z,0.00
2023-02-03T06:13:57.219Z,0.00
2023-02-03T06:14:57.151Z,0.00
2023-02-03T06:15:57.130Z,0.00
2023-02-03T06:16:57.038Z,0.00
2023-02-03T06:18:17.932Z,0.00
2023-02-03T06:18:56.866Z,0.00
2023-02-03T06:19:56.841Z,0.00
2023-02-03T06:20:56.743Z,0.00
2023-02-03T06:21:56.680Z,0.00
2023-02-03T06:22:56.610Z,0.00
2023-02-03T06:24:17.558Z,0.00
2023-02-03T06:24:56.472Z,0.00
2023-02-03T06:25:56.413Z,0.00
2023-02-03T06:26:56.320Z,0.00
2023-02-03T06:27:56.338Z,0.00
2023-02-03T06:28:56.200Z,0.00
2023-02-03T06:30:17.139Z,0.00
2023-02-03T06:30:56.104Z,0.00
2023-02-03T06:31:56.085Z,0.00
2023-02-03T06:32:55.913Z,0.00
2023-02-03T06:33:55.852Z,0.00
2023-02-03T06:34:55.797Z,0.00
2023-02-03T06:36:16.696Z,0.00
2023-02-03T06:36:55.659Z,0.00
2023-02-03T06:37:55.578Z,0.00
2023-02-03T06:38:55.516Z,0.00
2023-02-03T06:39:55.451Z,0.00
2023-02-03T06:40:55.409Z,0.00
2023-02-03T06:42:16.293Z,0.00
2023-02-03T06:42:55.259Z,0.00
2023-02-03T06:43:55.170Z,0.00
2023-02-03T06:44:55.110Z,0.00
2023-02-03T06:45:55.068Z,0.00
2023-02-03T06:46:54.957Z,0.00
2023-02-03T06:48:15.959Z,0.00
2023-02-03T06:48:54.832Z,0.00
2023-02-03T06:49:54.781Z,0.00
2023-02-03T06:50:54.694Z,0.00
2023-02-03T06:51:54.621Z,0.00
2023-02-03T06:52:54.564Z,0.00
2023-02-03T06:54:15.489Z,0.00
2023-02-03T06:54:54.423Z,0.00
2023-02-03T06:55:54.346Z,0.00
2023-02-03T06:56:54.277Z,0.00
2023-02-03T06:57:54.246Z,0.00
2023-02-03T06:58:54.151Z,0.00
2023-02-03T07:00:17.466Z,0.00
2023-02-03T07:00:54.007Z,0.00
2023-02-03T07:01:54.002Z,0.00
2023-02-03T07:02:53.955Z,0.00
2023-02-03T07:03:53.808Z,0.00
2023-02-03T07:04:53.750Z,0.00
2023-02-03T07:06:14.670Z,0.00
2023-02-03T07:06:53.595Z,0.00
2023-02-03T07:07:53.554Z,0.00
2023-02-03T07:08:53.474Z,0.00
2023-02-03T07:09:53.409Z,0.00
2023-02-03T07:10:53.352Z,0.00
2023-02-03T07:12:14.253Z,0.00
2023-02-03T07:12:53.276Z,0.00
2023-02-03T07:13:53.121Z,0.00
2023-02-03T07:14:53.079Z,0.00
2023-02-03T07:15:53.039Z,0.00
2023-02-03T07:16:52.910Z,0.00
2023-02-03T07:18:17.997Z,0.00
2023-02-03T07:18:52.782Z,0.00
2023-02-03T07:19:52.708Z,0.00
2023-02-03T07:20:52.656Z,0.00
2023-02-03T07:21:52.583Z,0.00
2023-02-03T07:22:52.650Z,0.00
2023-02-03T07:24:13.448Z,0.00
2023-02-03T07:24:52.373Z,0.00
2023-02-03T07:25:52.333Z,0.00
2023-02-03T07:26:52.292Z,0.00
2023-02-03T07:27:52.213Z,5.63
2023-02-03T07:28:52.108Z,0.00
2023-02-03T07:30:13.042Z,5.63
2023-02-03T07:30:52.061Z,0.00
2023-02-03T07:31:51.994Z,5.63
2023-02-03T07:32:51.839Z,0.00
2023-02-03T07:33:51.768Z,0.00
2023-02-03T07:34:51.689Z,0.00
2023-02-03T07:36:12.625Z,5.63
2023-02-03T07:36:51.560Z,5.63
2023-02-03T07:37:51.494Z,5.63
2023-02-03T07:38:51.424Z,5.63
2023-02-03T07:39:51.376Z,5.63
2023-02-03T07:40:51.285Z,5.63
2023-02-03T07:42:12.199Z,5.63
2023-02-03T07:42:51.179Z,5.63
2023-02-03T07:43:51.088Z,5.63
2023-02-03T07:44:51.023Z,5.63
2023-02-03T07:45:50.953Z,5.63
2023-02-03T07:46:50.948Z,5.63
2023-02-03T07:48:11.819Z,5.63
2023-02-03T07:48:50.743Z,5.63
2023-02-03T07:49:50.674Z,5.63
2023-02-03T07:50:50.618Z,11.25
2023-02-03T07:51:50.535Z,5.63
2023-02-03T07:52:50.475Z,5.63
2023-02-03T07:54:11.408Z,5.63
2023-02-03T07:54:50.341Z,5.63
2023-02-03T07:55:50.283Z,5.63
2023-02-03T07:56:50.202Z,5.63
2023-02-03T07:57:50.160Z,5.63
2023-02-03T07:58:50.067Z,5.63
2023-02-03T08:00:10.978Z,5.63
2023-02-03T08:00:49.921Z,5.63
2023-02-03T08:01:49.921Z,5.63
2023-02-03T08:02:49.802Z,11.25
2023-02-03T08:03:49.729Z,11.25
2023-02-03T08:04:49.748Z,11.25
2023-02-03T08:06:10.629Z,16.88
2023-02-03T08:06:49.523Z,16.88
2023-02-03T08:07:49.479Z,22.50
2023-02-03T08:08:49.398Z,16.88
2023-02-03T08:09:49.318Z,16.88
2023-02-03T08:10:51.067Z,16.88
2023-02-03T08:12:10.261Z,16.88
2023-02-03T08:12:49.117Z,16.88
2023-02-03T08:13:49.053Z,16.88
2023-02-03T08:14:48.997Z,16.88
2023-02-03T08:15:48.937Z,16.88
2023-02-03T08:16:48.866Z,16.88
2023-02-03T08:18:09.826Z,16.88
2023-02-03T08:18:48.717Z,16.88
2023-02-03T08:19:48.659Z,16.88
2023-02-03T08:20:48.588Z,16.88
2023-02-03T08:21:48.648Z,16.88
2023-02-03T08:22:48.602Z,16.88
2023-02-03T08:24:09.360Z,16.88
2023-02-03T08:24:48.308Z,16.88
2023-02-03T08:25:48.315Z,16.88
2023-02-03T08:26:48.169Z,11.25
2023-02-03T08:27:48.164Z,11.25
2023-02-03T08:28:48.034Z,11.25
2023-02-03T08:30:08.975Z,11.25
2023-02-03T08:30:47.978Z,11.25
2023-02-03T08:31:47.936Z,11.25
2023-02-03T08:32:47.779Z,11.25
2023-02-03T08:33:47.703Z,11.25
2023-02-03T08:34:47.670Z,11.25
2023-02-03T08:36:08.543Z,11.25
2023-02-03T08:36:47.508Z,11.25
2023-02-03T08:37:47.441Z,11.25
2023-02-03T08:38:47.370Z,16.88
2023-02-03T08:39:47.305Z,16.88
2023-02-03T08:40:47.227Z,16.88
2023-02-03T08:42:08.171Z,11.25
2023-02-03T08:42:47.104Z,16.88
2023-02-03T08:43:47.028Z,16.88
2023-02-03T08:44:46.957Z,16.88
2023-02-03T08:45:46.898Z,16.88
2023-02-03T08:46:46.815Z,16.88
2023-02-03T08:48:07.733Z,16.88
2023-02-03T08:48:46.723Z,16.88
2023-02-03T08:49:46.615Z,16.88
2023-02-03T08:50:46.543Z,16.88
2023-02-03T08:51:46.473Z,22.50
2023-02-03T08:52:46.408Z,22.50
2023-02-03T08:54:07.322Z,22.50
2023-02-03T08:54:46.295Z,16.88
2023-02-03T08:55:46.207Z,16.88
2023-02-03T08:56:46.138Z,16.88
2023-02-03T08:57:46.152Z,22.50
2023-02-03T08:58:46.014Z,16.88
2023-02-03T09:00:06.920Z,16.88
2023-02-03T09:00:45.894Z,16.88
2023-02-03T09:01:45.823Z,16.88
2023-02-03T09:02:45.786Z,16.88
2023-02-03T09:03:45.739Z,16.88
2023-02-03T09:04:45.726Z,16.88
2023-02-03T09:06:06.517Z,11.25
2023-02-03T09:06:45.466Z,22.50
2023-02-03T09:07:45.406Z,22.50
2023-02-03T09:08:45.340Z,22.50
2023-02-03T09:09:45.255Z,16.88
2023-02-03T09:10:45.193Z,16.88
2023-02-03T09:12:06.150Z,16.88
2023-02-03T09:12:45.071Z,11.25
2023-02-03T09:13:44.994Z,16.88
2023-02-03T09:14:44.934Z,11.25
2023-02-03T09:15:44.847Z,11.25
2023-02-03T09:16:44.821Z,11.25
2023-02-03T09:18:05.702Z,11.25
2023-02-03T09:18:44.681Z,16.88
2023-02-03T09:19:44.601Z,16.88
2023-02-03T09:20:44.505Z,22.50
2023-02-03T09:21:48.425Z,16.88
2023-02-03T09:22:44.427Z,16.88
2023-02-03T09:24:05.285Z,16.88
2023-02-03T09:24:44.247Z,16.88
2023-02-03T09:25:47.245Z,28.13
2023-02-03T09:26:44.137Z,22.50
2023-02-03T09:27:44.105Z,16.88
2023-02-03T09:28:43.977Z,16.88
2023-02-03T09:30:04.879Z,16.88
2023-02-03T09:30:43.882Z,16.88
2023-02-03T09:31:44.008Z,16.88
2023-02-03T09:32:43.702Z,16.88
2023-02-03T09:33:43.749Z,16.88
2023-02-03T09:34:43.581Z,16.88
2023-02-03T09:36:04.509Z,16.88
2023-02-03T09:36:43.463Z,16.88
2023-02-03T09:37:43.374Z,16.88
2023-02-03T09:38:43.301Z,16.88
2023-02-03T09:39:43.248Z,16.88
2023-02-03T09:40:43.157Z,16.88
2023-02-03T09:42:04.079Z,16.88
2023-02-03T09:42:43.062Z,16.88
2023-02-03T09:43:43.015Z,16.88
2023-02-03T09:44:42.893Z,22.50
2023-02-03T09:45:42.870Z,16.88
2023-02-03T09:46:42.753Z,22.50
2023-02-03T09:48:03.668Z,22.50
2023-02-03T09:48:42.617Z,28.13
2023-02-03T09:49:42.552Z,22.50
2023-02-03T09:50:42.508Z,22.50
2023-02-03T09:51:42.431Z,33.75
2023-02-03T09:52:42.351Z,33.75
2023-02-03T09:54:03.311Z,28.13
2023-02-03T09:54:42.215Z,45.00
2023-02-03T09:55:42.156Z,33.75
2023-02-03T09:56:42.088Z,28.13
2023-02-03T09:57:42.009Z,22.50
2023-02-03T09:58:41.941Z,28.13
2023-02-03T10:00:02.871Z,22.50
2023-02-03T10:00:41.830Z,22.50
2023-02-03T10:01:41.737Z,22.50
2023-02-03T10:02:41.753Z,22.50
2023-02-03T10:03:41.635Z,22.50
2023-02-03T10:04:41.540Z,39.38
2023-02-03T10:06:02.493Z,28.13
2023-02-03T10:06:41.396Z,28.13
2023-02-03T10:07:41.351Z,33.75
2023-02-03T10:08:41.276Z,22.50
2023-02-03T10:09:41.196Z,22.50
2023-02-03T10:10:41.145Z,22.50
2023-02-03T10:12:02.087Z,16.88
2023-02-03T10:12:40.993Z,22.50
2023-02-03T10:13:40.926Z,22.50
2023-02-03T10:14:40.892Z,22.50
2023-02-03T10:15:40.800Z,33.75
2023-02-03T10:16:40.813Z,28.13
2023-02-03T10:18:01.641Z,33.75
2023-02-03T10:18:40.591Z,22.50
2023-02-03T10:19:40.516Z,22.50
2023-02-03T10:20:40.471Z,28.13
2023-02-03T10:21:40.390Z,22.50
2023-02-03T10:22:40.326Z,22.50
2023-02-03T10:24:01.239Z,22.50
2023-02-03T10:24:40.204Z,28.13
2023-02-03T10:25:40.119Z,28.13
2023-02-03T10:26:40.083Z,16.88
2023-02-03T10:27:40.079Z,16.88
2023-02-03T10:28:39.930Z,11.25
2023-02-03T10:30:00.869Z,11.25
2023-02-03T10:30:39.896Z,11.25
2023-02-03T10:31:39.776Z,11.25
2023-02-03T10:32:39.677Z,11.25
2023-02-03T10:33:39.586Z,11.25
2023-02-03T10:34:39.519Z,11.25
2023-02-03T10:36:00.435Z,11.25
2023-02-03T10:36:39.384Z,11.25
2023-02-03T10:37:39.308Z,11.25
2023-02-03T10:38:39.260Z,16.88
2023-02-03T10:39:39.179Z,22.50
2023-02-03T10:40:39.135Z,33.75
2023-02-03T10:42:00.048Z,33.75
2023-02-03T10:42:38.981Z,39.38
2023-02-03T10:43:38.908Z,45.00
2023-02-03T10:44:38.839Z,45.00
2023-02-03T10:45:38.795Z,45.00
2023-02-03T10:46:38.845Z,39.38
2023-02-03T10:47:59.628Z,39.38
2023-02-03T10:48:38.623Z,39.38
2023-02-03T10:49:38.528Z,50.63
2023-02-03T10:50:38.438Z,67.50
2023-02-03T10:51:38.361Z,84.38
2023-02-03T10:52:38.302Z,95.63
2023-02-03T10:53:59.242Z,106.88
2023-02-03T10:54:38.239Z,146.25
2023-02-03T10:55:38.103Z,157.50
2023-02-03T10:56:38.137Z,140.63
2023-02-03T10:57:37.960Z,123.75
2023-02-03T10:58:37.898Z,112.50
2023-02-03T10:59:58.836Z,101.25
2023-02-03T11:00:37.791Z,84.38
2023-02-03T11:01:37.697Z,78.75
2023-02-03T11:02:37.674Z,73.13
2023-02-03T11:03:37.645Z,78.75
2023-02-03T11:04:37.512Z,84.38
2023-02-03T11:05:58.432Z,78.75
2023-02-03T11:06:37.357Z,73.13
2023-02-03T11:07:37.276Z,67.50
2023-02-03T11:08:37.221Z,67.50
2023-02-03T11:09:37.154Z,78.75
2023-02-03T11:10:37.124Z,90.00
2023-02-03T11:11:58.020Z,95.63
2023-02-03T11:12:37.044Z,101.25
2023-02-03T11:13:37.019Z,101.25
2023-02-03T11:14:36.838Z,95.63
2023-02-03T11:15:36.816Z,101.25
2023-02-03T11:16:39.272Z,101.25
2023-02-03T11:17:57.589Z,146.25
2023-02-03T11:18:36.558Z,157.50
2023-02-03T11:19:36.487Z,140.63
2023-02-03T11:20:36.435Z,174.38
2023-02-03T11:21:36.341Z,140.63
2023-02-03T11:22:36.276Z,151.88
2023-02-03T11:23:57.187Z,157.50
2023-02-03T11:24:36.169Z,146.25
2023-02-03T11:25:36.113Z,168.75
2023-02-03T11:26:36.020Z,174.38
2023-02-03T11:27:35.934Z,196.88
2023-02-03T11:28:35.895Z,281.25
2023-02-03T11:29:56.797Z,1563.75
2023-02-03T11:30:35.729Z,309.38
2023-02-03T11:31:35.754Z,720.00
2023-02-03T11:32:35.606Z,691.88
2023-02-03T11:33:35.541Z,337.50
2023-02-03T11:34:35.521Z,286.88
2023-02-03T11:35:56.417Z,208.13
2023-02-03T11:36:35.360Z,185.63
2023-02-03T11:37:35.286Z,163.13
2023-02-03T11:38:35.245Z,157.50
2023-02-03T11:39:35.158Z,101.25
2023-02-03T11:40:35.315Z,129.38
2023-02-03T11:41:56.006Z,180.00
2023-02-03T11:42:34.996Z,185.63
2023-02-03T11:43:34.946Z,180.00
2023-02-03T11:44:34.860Z,168.75
2023-02-03T11:45:34.782Z,174.38
2023-02-03T11:46:34.821Z,168.75
2023-02-03T11:47:55.616Z,202.50
2023-02-03T11:48:34.596Z,196.88
2023-02-03T11:49:34.514Z,202.50
2023-02-03T11:50:34.438Z,230.63
2023-02-03T11:51:34.344Z,236.25
2023-02-03T11:52:34.296Z,236.25
2023-02-03T11:53:57.457Z,258.75
2023-02-03T11:54:34.166Z,185.63
2023-02-03T11:55:34.166Z,191.25
2023-02-03T11:56:34.028Z,202.50
2023-02-03T11:57:33.998Z,191.25
2023-02-03T11:58:33.903Z,202.50
2023-02-03T11:59:54.825Z,241.88
2023-02-03T12:00:33.758Z,219.38
2023-02-03T12:01:33.708Z,208.13
2023-02-03T12:02:33.652Z,174.38
2023-02-03T12:03:33.572Z,213.75
2023-02-03T12:04:33.527Z,191.25
2023-02-03T12:05:54.444Z,196.88
2023-02-03T12:06:33.382Z,225.00
2023-02-03T12:07:33.311Z,230.63
2023-02-03T12:08:33.236Z,180.00
2023-02-03T12:09:33.239Z,230.63
2023-02-03T12:10:33.108Z,225.00
2023-02-03T12:11:54.032Z,185.63
2023-02-03T12:12:33.000Z,180.00
2023-02-03T12:13:32.902Z,163.13
2023-02-03T12:14:32.829Z,129.38
2023-02-03T12:15:32.777Z,157.50
2023-02-03T12:16:32.747Z,146.25
2023-02-03T12:17:53.637Z,140.63
2023-02-03T12:18:32.573Z,163.13
2023-02-03T12:19:32.513Z,135.00
2023-02-03T12:20:32.444Z,129.38
2023-02-03T12:21:32.379Z,129.38
2023-02-03T12:22:32.312Z,168.75
2023-02-03T12:23:53.235Z,135.00
2023-02-03T12:24:32.193Z,163.13
2023-02-03T12:25:32.121Z,174.38
2023-02-03T12:26:32.046Z,168.75
2023-02-03T12:27:31.983Z,180.00
2023-02-03T12:28:33.636Z,247.50
2023-02-03T12:29:52.852Z,258.75
2023-02-03T12:30:32.112Z,241.88
2023-02-03T12:31:31.779Z,219.38
2023-02-03T12:32:31.661Z,253.13
2023-02-03T12:33:31.569Z,191.25
2023-02-03T12:34:31.539Z,174.38
2023-02-03T12:35:52.441Z,185.63
2023-02-03T12:36:31.359Z,191.25
2023-02-03T12:37:31.309Z,185.63
2023-02-03T12:38:31.279Z,225.00
2023-02-03T12:39:31.170Z,253.13
2023-02-03T12:40:31.281Z,264.38
2023-02-03T12:41:52.042Z,230.63
2023-02-03T12:42:30.983Z,157.50
2023-02-03T12:43:30.931Z,123.75
2023-02-03T12:44:30.832Z,90.00
2023-02-03T12:45:30.840Z,50.63
2023-02-03T12:46:30.750Z,33.75
2023-02-03T12:47:51.639Z,28.13
2023-02-03T12:48:30.603Z,22.50
2023-02-03T12:49:30.543Z,16.88
2023-02-03T12:50:30.946Z,16.88
2023-02-03T12:51:30.385Z,16.88
2023-02-03T12:52:30.339Z,16.88
2023-02-03T12:53:51.252Z,16.88
2023-02-03T12:54:30.193Z,16.88
2023-02-03T12:55:30.158Z,22.50
2023-02-03T12:56:30.081Z,33.75
2023-02-03T12:57:30.008Z,61.88
2023-02-03T12:58:29.912Z,84.38
2023-02-03T12:59:50.834Z,90.00
2023-02-03T13:00:30.100Z,78.75
2023-02-03T13:01:29.775Z,84.38
2023-02-03T13:02:29.755Z,84.38
2023-02-03T13:03:29.571Z,95.63
2023-02-03T13:04:29.512Z,101.25